createdAt,value
2019-06-20T00:00:01.449Z,1.70
2019-06-20T00:02:32.724Z,1.20
2019-06-20T00:05:03.979Z,1.43
2019-06-20T00:07:36.279Z,1.33
2019-06-20T00:10:08.554Z,0.78
2019-06-20T00:12:39.655Z,1.00
2019-06-20T00:15:10.866Z,0.80
2019-06-20T00:17:41.964Z,0.93
2019-06-20T00:20:13.223Z,1.00
2019-06-20T00:22:45.305Z,0.96
2019-06-20T00:25:16.466Z,1.20
2019-06-20T00:27:47.538Z,1.73
2019-06-20T00:30:18.955Z,1.00
2019-06-20T00:32:50.187Z,0.80
2019-06-20T00:35:21.477Z,1.10
2019-06-20T00:37:52.787Z,0.90
2019-06-20T00:40:24.014Z,0.72
2019-06-20T00:42:55.281Z,1.10
2019-06-20T00:45:27.463Z,1.02
2019-06-20T00:47:58.540Z,0.90
2019-06-20T00:50:29.603Z,1.00
2019-06-20T00:53:00.724Z,1.13
2019-06-20T00:55:32.022Z,0.80
2019-06-20T00:58:03.237Z,0.97
2019-06-20T01:00:34.297Z,0.80
2019-06-20T01:03:05.503Z,1.23
2019-06-20T01:05:36.710Z,0.80
2019-06-20T01:08:08.014Z,1.40
2019-06-20T01:10:39.219Z,1.03
2019-06-20T01:13:10.313Z,1.20
2019-06-20T01:15:41.588Z,0.97
2019-06-20T01:18:12.828Z,0.83
2019-06-20T01:20:44.031Z,1.20
2019-06-20T01:23:15.637Z,1.13
2019-06-20T01:25:47.044Z,1.00
2019-06-20T01:28:18.203Z,1.00
2019-06-20T01:30:49.641Z,0.90
2019-06-20T01:33:20.802Z,1.20
2019-06-20T01:35:52.890Z,1.07
2019-06-20T01:38:24.038Z,1.00
2019-06-20T01:40:55.055Z,1.10
2019-06-20T01:43:26.172Z,1.00
2019-06-20T01:45:57.199Z,1.10
2019-06-20T01:48:28.302Z,1.32
2019-06-20T01:51:00.396Z,1.37
2019-06-20T01:53:31.495Z,1.30
2019-06-20T01:56:02.815Z,1.53
2019-06-20T01:58:33.871Z,1.50
2019-06-20T02:01:05.312Z,1.10
2019-06-20T02:03:36.498Z,1.30
2019-06-20T02:06:07.654Z,1.50
2019-06-20T02:08:38.722Z,1.10
2019-06-20T02:11:10.122Z,1.20
2019-06-20T02:13:41.270Z,1.40
2019-06-20T02:16:12.587Z,1.53
2019-06-20T02:18:43.734Z,1.13
2019-06-20T02:21:15.939Z,1.20
2019-06-20T02:23:47.155Z,1.60
2019-06-20T02:26:18.421Z,1.50
2019-06-20T02:28:49.735Z,1.40
2019-06-20T02:31:21.204Z,1.54
2019-06-20T02:33:52.968Z,1.37
2019-06-20T02:36:24.109Z,1.20
2019-06-20T02:38:55.260Z,1.20
2019-06-20T02:41:26.444Z,1.50
2019-06-20T02:43:57.516Z,1.10
2019-06-20T02:46:28.692Z,1.60
2019-06-20T02:48:59.804Z,1.07
2019-06-20T02:51:31.637Z,2.12
2019-06-20T02:54:02.985Z,1.77
2019-06-20T02:56:34.076Z,1.20
2019-06-20T02:59:05.275Z,1.40
2019-06-20T03:01:36.358Z,1.20
2019-06-20T03:04:07.477Z,1.02
2019-06-20T03:06:38.706Z,1.20
2019-06-20T03:09:10.380Z,1.62
2019-06-20T03:11:41.443Z,0.90
2019-06-20T03:14:12.694Z,0.67
2019-06-20T03:16:43.850Z,1.20
2019-06-20T03:19:14.937Z,1.05
2019-06-20T03:21:46.046Z,1.30
2019-06-20T03:24:17.073Z,1.10
2019-06-20T03:26:48.507Z,1.30
2019-06-20T03:29:19.615Z,1.00
2019-06-20T03:31:50.721Z,1.20
2019-06-20T03:34:22.061Z,1.40
2019-06-20T03:36:53.219Z,1.25
2019-06-20T03:39:24.362Z,1.10
2019-06-20T03:41:56.084Z,1.30
2019-06-20T03:44:27.305Z,1.12
2019-06-20T03:46:58.391Z,1.20
2019-06-20T03:49:29.423Z,1.42
2019-06-20T03:52:00.477Z,1.60
2019-06-20T03:54:31.502Z,1.32
2019-06-20T03:57:02.601Z,1.27
2019-06-20T03:59:33.618Z,1.37
2019-06-20T04:02:04.758Z,1.15
2019-06-20T04:04:35.813Z,1.40
2019-06-20T04:07:07.938Z,1.20
2019-06-20T04:09:39.100Z,1.33
2019-06-20T04:12:10.210Z,1.17
2019-06-20T04:14:41.368Z,1.40
2019-06-20T04:17:12.428Z,1.10
2019-06-20T04:23:30.176Z,1.60
2019-06-20T04:26:01.276Z,1.22
2019-06-20T04:28:32.303Z,1.23
2019-06-20T04:31:03.344Z,1.00
2019-06-20T04:33:34.422Z,1.15
2019-06-20T04:36:05.642Z,1.20
2019-06-20T04:38:37.548Z,1.40
2019-06-20T04:41:08.685Z,1.07
2019-06-20T04:43:39.784Z,1.07
2019-06-20T04:46:20.572Z,0.93
2019-06-20T04:48:51.628Z,1.23
2019-06-20T04:51:22.693Z,1.20
2019-06-20T04:53:53.687Z,1.13
2019-06-20T04:56:24.816Z,1.10
2019-06-20T04:58:55.855Z,0.83
2019-06-20T05:01:26.928Z,1.20
2019-06-20T05:03:59.017Z,1.40
2019-06-20T05:06:30.146Z,1.40
2019-06-20T05:09:01.168Z,1.07
2019-06-20T05:11:33.889Z,1.10
2019-06-20T05:14:05.220Z,1.47
2019-06-20T05:16:36.350Z,1.00
2019-06-20T05:19:08.621Z,1.00
2019-06-20T05:21:40.621Z,1.03
2019-06-20T05:24:11.764Z,1.10
2019-06-20T05:26:42.879Z,0.90
2019-06-20T05:29:14.017Z,1.00
2019-06-20T05:31:45.077Z,0.83
2019-06-20T05:34:16.275Z,1.10
2019-06-20T05:36:47.338Z,0.90
2019-06-20T05:39:18.365Z,0.95
2019-06-20T05:41:50.424Z,0.90
2019-06-20T05:44:21.515Z,1.00
2019-06-20T05:47:08.522Z,1.00
2019-06-20T05:49:26.043Z,1.00
2019-06-20T05:51:57.205Z,0.97
2019-06-20T05:54:28.197Z,0.93
2019-06-20T05:57:03.186Z,0.70
2019-06-20T05:59:32.149Z,1.03
2019-06-20T06:02:03.327Z,0.80
2019-06-20T06:04:34.592Z,0.80
2019-06-20T06:07:06.201Z,0.90
2019-06-20T06:09:38.290Z,0.77
2019-06-20T06:12:09.818Z,0.73
2019-06-20T06:14:40.995Z,0.90
2019-06-20T06:17:12.278Z,1.03
2019-06-20T06:19:43.335Z,0.87
2019-06-20T06:22:14.400Z,1.00
2019-06-20T06:24:45.542Z,0.80
2019-06-20T06:27:17.723Z,0.80
2019-06-20T06:29:49.732Z,0.90
2019-06-20T06:32:20.899Z,0.67
2019-06-20T06:34:52.078Z,1.17
2019-06-20T06:37:23.196Z,1.00
2019-06-20T06:39:54.288Z,0.70
2019-06-20T06:42:25.521Z,1.20
2019-06-20T06:44:56.805Z,1.00
2019-06-20T06:47:27.829Z,0.80
2019-06-20T06:49:59.822Z,0.80
2019-06-20T06:52:31.036Z,0.72
2019-06-20T06:55:02.204Z,1.30
2019-06-20T06:57:33.227Z,0.53
2019-06-20T07:00:04.677Z,0.70
2019-06-20T07:02:35.817Z,1.10
2019-06-20T07:05:07.524Z,0.90
2019-06-20T07:07:39.954Z,1.03
2019-06-20T07:10:11.895Z,0.68
2019-06-20T07:12:43.122Z,1.00
2019-06-20T07:15:15.161Z,0.80
2019-06-20T07:17:46.458Z,0.70
2019-06-20T07:20:18.149Z,0.95
2019-06-20T07:22:49.351Z,0.90
2019-06-20T07:25:22.309Z,1.30
2019-06-20T07:27:53.660Z,1.27
2019-06-20T07:30:25.244Z,1.00
2019-06-20T07:32:56.384Z,1.20
2019-06-20T07:35:27.620Z,1.20
2019-06-20T07:37:58.801Z,1.20
2019-06-20T07:40:29.984Z,1.03
2019-06-20T07:43:01.058Z,0.98
2019-06-20T07:45:32.329Z,1.07
2019-06-20T07:48:03.356Z,1.12
2019-06-20T07:50:34.435Z,1.23
2019-06-20T07:53:06.094Z,1.30
2019-06-20T07:55:37.091Z,1.20
2019-06-20T07:58:08.187Z,1.20
2019-06-20T08:00:39.406Z,1.00
2019-06-20T08:03:10.524Z,1.00
2019-06-20T08:05:41.718Z,1.10
2019-06-20T08:08:12.772Z,1.02
2019-06-20T08:10:45.443Z,0.80
2019-06-20T08:13:16.587Z,0.97
2019-06-20T08:15:47.763Z,0.90
2019-06-20T08:18:19.227Z,1.03
2019-06-20T08:20:50.429Z,1.10
2019-06-20T08:23:21.555Z,0.93
2019-06-20T08:25:53.936Z,0.93
2019-06-20T08:28:26.248Z,0.88
2019-06-20T08:30:58.892Z,1.17
2019-06-20T08:33:30.101Z,0.80
2019-06-20T08:36:02.321Z,1.00
2019-06-20T08:38:33.368Z,1.20
2019-06-20T08:41:04.857Z,1.00
2019-06-20T08:43:37.319Z,0.93
2019-06-20T08:46:10.467Z,1.13
2019-06-20T08:48:41.650Z,0.90
2019-06-20T08:51:14.698Z,1.30
2019-06-20T08:53:45.571Z,1.30
2019-06-20T08:56:16.868Z,1.10
2019-06-20T08:58:47.919Z,1.10
2019-06-20T09:01:19.358Z,1.03
2019-06-20T09:03:50.824Z,0.97
2019-06-20T09:06:22.769Z,1.00
2019-06-20T09:08:55.454Z,0.90
2019-06-20T09:11:26.865Z,0.90
2019-06-20T09:13:59.018Z,1.27
2019-06-20T09:16:30.360Z,1.20
2019-06-20T09:19:02.612Z,1.10
2019-06-20T09:21:33.824Z,1.00
2019-06-20T09:24:05.143Z,0.98
2019-06-20T09:26:37.177Z,1.40
2019-06-20T09:29:08.279Z,1.20
2019-06-20T09:31:39.427Z,1.15
2019-06-20T09:34:10.527Z,1.03
2019-06-20T09:36:41.673Z,1.07
2019-06-20T09:39:12.901Z,1.20
2019-06-20T09:41:44.013Z,1.17
2019-06-20T09:44:15.472Z,1.37
2019-06-20T09:46:46.526Z,1.03
2019-06-20T09:49:17.763Z,1.33
2019-06-20T09:51:50.266Z,0.90
2019-06-20T09:54:21.476Z,1.20
2019-06-20T09:56:55.397Z,1.30
2019-06-20T09:59:27.992Z,1.30
2019-06-20T10:02:00.349Z,1.60
2019-06-20T10:04:31.643Z,1.30
2019-06-20T10:07:03.931Z,1.20
2019-06-20T10:09:35.056Z,1.40
2019-06-20T10:12:06.271Z,1.10
2019-06-20T10:14:37.335Z,1.03
2019-06-20T10:17:08.527Z,1.10
2019-06-20T10:19:39.829Z,1.30
2019-06-20T10:22:11.098Z,1.23
2019-06-20T10:24:42.155Z,1.17
2019-06-20T10:27:13.533Z,1.50
2019-06-20T10:29:46.196Z,1.00
2019-06-20T10:32:17.782Z,1.33
2019-06-20T10:34:48.978Z,1.10
2019-06-20T10:37:20.380Z,1.12
2019-06-20T10:39:52.092Z,1.07
2019-06-20T10:42:23.406Z,1.27
2019-06-20T10:44:54.500Z,1.70
2019-06-20T10:47:32.610Z,1.08
2019-06-20T10:49:59.655Z,1.40
2019-06-20T10:52:30.840Z,1.10
2019-06-20T10:55:01.972Z,1.57
2019-06-20T10:57:33.178Z,1.00
2019-06-20T11:00:07.402Z,1.13
2019-06-20T11:02:38.562Z,1.20
2019-06-20T11:05:10.092Z,1.17
2019-06-20T11:07:42.470Z,1.13
2019-06-20T11:10:14.930Z,1.10
2019-06-20T11:12:52.402Z,1.27
2019-06-20T11:15:21.375Z,1.00
2019-06-20T11:17:55.954Z,1.50
2019-06-20T11:20:25.497Z,1.40
2019-06-20T11:22:56.700Z,1.30
2019-06-20T11:25:28.068Z,1.33
2019-06-20T11:27:59.227Z,1.05
2019-06-20T11:30:45.039Z,1.07
2019-06-20T11:33:05.866Z,1.23
2019-06-20T11:35:37.777Z,1.10
2019-06-20T11:38:09.216Z,1.30
2019-06-20T11:40:41.565Z,1.33
2019-06-20T11:43:12.739Z,1.50
2019-06-20T11:45:43.872Z,1.23
2019-06-20T11:48:15.000Z,1.40
2019-06-20T11:50:46.518Z,1.40
2019-06-20T11:53:18.199Z,1.37
2019-06-20T11:55:49.580Z,0.80
2019-06-20T11:58:23.427Z,1.30
2019-06-20T12:01:03.473Z,1.15
2019-06-20T12:03:27.346Z,1.37
2019-06-20T12:05:58.423Z,1.27
2019-06-20T12:08:30.638Z,1.50
2019-06-20T12:11:01.902Z,1.37
2019-06-20T12:13:34.310Z,1.27
2019-06-20T12:16:06.888Z,1.40
2019-06-20T12:18:39.912Z,1.20
2019-06-20T12:21:11.325Z,1.27
2019-06-20T12:23:42.618Z,1.10
2019-06-20T12:26:13.831Z,1.20
2019-06-20T12:28:46.619Z,1.07
2019-06-20T12:31:19.857Z,1.60
2019-06-20T12:33:50.675Z,1.13
2019-06-20T12:36:21.903Z,1.10
2019-06-20T12:38:53.042Z,1.10
2019-06-20T12:41:24.096Z,1.23
2019-06-20T12:43:55.253Z,1.10
2019-06-20T12:46:26.290Z,1.30
2019-06-20T12:48:57.348Z,1.10
2019-06-20T12:51:28.456Z,1.10
2019-06-20T12:53:59.591Z,1.00
2019-06-20T12:56:30.676Z,1.00
2019-06-20T12:59:01.729Z,1.15
2019-06-20T13:01:38.916Z,1.53
2019-06-20T13:04:06.000Z,1.63
2019-06-20T13:06:37.702Z,1.60
2019-06-20T13:09:10.363Z,1.40
2019-06-20T13:11:42.637Z,1.70
2019-06-20T13:14:13.919Z,1.50
2019-06-20T13:16:46.031Z,1.53
2019-06-20T13:19:17.205Z,1.30
2019-06-20T13:21:48.595Z,1.73
2019-06-20T13:24:19.801Z,1.77
2019-06-20T13:26:50.854Z,1.57
2019-06-20T13:29:23.107Z,1.40
2019-06-20T13:32:03.929Z,1.37
2019-06-20T13:34:27.564Z,1.60
2019-06-20T13:36:58.757Z,1.40
2019-06-20T13:39:29.812Z,1.80
2019-06-20T13:42:01.156Z,1.40
2019-06-20T13:44:33.136Z,1.20
2019-06-20T13:47:04.234Z,1.32
2019-06-20T13:49:35.267Z,0.67
2019-06-20T13:52:06.365Z,1.00
2019-06-20T13:54:37.385Z,1.10
2019-06-20T13:57:08.495Z,1.00
2019-06-20T13:59:40.265Z,0.90
2019-06-20T14:02:12.587Z,0.90
2019-06-20T14:04:44.484Z,0.90
2019-06-20T14:07:15.510Z,0.80
2019-06-20T14:09:48.482Z,0.93
2019-06-20T14:12:19.804Z,0.93
2019-06-20T14:14:52.172Z,0.90
2019-06-20T14:17:23.417Z,0.85
2019-06-20T14:19:56.540Z,0.80
2019-06-20T14:22:27.774Z,1.00
2019-06-20T14:24:58.970Z,0.80
2019-06-20T14:27:30.407Z,0.90
2019-06-20T14:30:01.962Z,0.90
2019-06-20T14:32:33.932Z,1.00
2019-06-20T14:35:05.175Z,1.00
2019-06-20T14:37:36.297Z,0.80
2019-06-20T14:40:07.608Z,0.78
2019-06-20T14:42:38.800Z,0.90
2019-06-20T14:45:10.232Z,1.12
2019-06-20T14:47:41.303Z,0.90
2019-06-20T14:50:13.324Z,1.20
2019-06-20T14:52:47.732Z,1.10
2019-06-20T14:55:18.988Z,1.00
2019-06-20T14:57:50.546Z,1.00
2019-06-20T15:00:22.582Z,0.97
2019-06-20T15:02:58.077Z,1.13
2019-06-20T15:05:26.474Z,0.93
2019-06-20T15:07:57.572Z,1.20
2019-06-20T15:10:28.663Z,0.90
2019-06-20T15:12:59.822Z,1.14
2019-06-20T15:15:31.687Z,0.80
2019-06-20T15:18:02.804Z,1.12
2019-06-20T15:20:33.922Z,1.00
2019-06-20T15:23:05.026Z,1.10
2019-06-20T15:25:36.110Z,0.90
2019-06-20T15:28:07.718Z,1.45
2019-06-20T15:30:38.837Z,1.00
2019-06-20T15:33:10.667Z,1.20
2019-06-20T15:35:45.103Z,1.00
2019-06-20T15:38:16.185Z,1.53
2019-06-20T15:40:48.439Z,1.60
2019-06-20T15:43:20.154Z,1.10
2019-06-20T15:45:52.078Z,1.10
2019-06-20T15:48:23.274Z,1.10
2019-06-20T15:50:55.205Z,1.10
2019-06-20T15:53:26.256Z,1.13
2019-06-20T15:55:57.443Z,1.30
2019-06-20T15:58:28.465Z,1.10
2019-06-20T16:00:59.512Z,1.17
2019-06-20T16:03:30.550Z,1.20
2019-06-20T16:06:01.623Z,1.00
2019-06-20T16:08:32.675Z,0.93
2019-06-20T16:11:03.912Z,1.03
2019-06-20T16:13:35.041Z,1.13
2019-06-20T16:16:06.286Z,0.98
2019-06-20T16:18:38.315Z,1.40
2019-06-20T16:21:09.418Z,1.10
2019-06-20T16:23:40.607Z,1.53
2019-06-20T16:26:11.639Z,1.20
2019-06-20T16:28:42.684Z,1.10
2019-06-20T16:31:26.302Z,1.10
2019-06-20T16:33:46.599Z,1.13
2019-06-20T16:36:17.661Z,1.30
2019-06-20T16:38:48.778Z,1.03
2019-06-20T16:41:19.923Z,1.73
2019-06-20T16:43:50.958Z,1.40
2019-06-20T16:46:21.984Z,1.07
2019-06-20T16:48:53.089Z,0.97
2019-06-20T16:51:24.193Z,1.13
2019-06-20T16:53:55.397Z,1.50
2019-06-20T16:56:27.653Z,1.60
2019-06-20T16:58:59.770Z,1.73
2019-06-20T17:01:30.842Z,1.73
2019-06-20T17:04:02.158Z,1.95
2019-06-20T17:06:33.263Z,1.30
2019-06-20T17:09:06.955Z,1.20
2019-06-20T17:11:38.439Z,1.20
2019-06-20T17:14:09.817Z,1.33
2019-06-20T17:16:41.059Z,1.17
2019-06-20T17:19:12.196Z,1.02
2019-06-20T17:21:43.358Z,1.10
2019-06-20T17:24:15.336Z,1.00
2019-06-20T17:26:46.348Z,1.07
2019-06-20T17:29:17.398Z,1.00
2019-06-20T17:31:48.751Z,1.10
2019-06-20T17:34:19.789Z,1.10
2019-06-20T17:36:50.880Z,0.90
2019-06-20T17:39:22.010Z,0.97
2019-06-20T17:41:55.442Z,1.00
2019-06-20T17:44:27.533Z,1.00
2019-06-20T17:46:58.903Z,0.83
2019-06-20T17:49:29.906Z,1.10
2019-06-20T17:52:00.991Z,1.20
2019-06-20T17:54:32.617Z,0.80
2019-06-20T17:57:03.798Z,0.88
2019-06-20T17:59:34.790Z,0.73
2019-06-20T18:02:05.842Z,0.90
2019-06-20T18:04:36.918Z,0.83
2019-06-20T18:07:08.141Z,0.90
2019-06-20T18:09:39.194Z,1.17
2019-06-20T18:12:12.151Z,0.80
2019-06-20T18:14:44.171Z,1.20
2019-06-20T18:17:15.319Z,0.93
2019-06-20T18:19:46.435Z,0.93
2019-06-20T18:22:17.577Z,1.00
2019-06-20T18:24:48.742Z,0.77
2019-06-20T18:27:19.922Z,0.70
2019-06-20T18:29:50.969Z,1.10
2019-06-20T18:32:22.096Z,0.70
2019-06-20T18:35:01.756Z,0.80
2019-06-20T18:37:31.379Z,0.70
2019-06-20T18:39:59.481Z,0.90
2019-06-20T18:42:30.540Z,0.70
2019-06-20T18:45:01.718Z,0.93
2019-06-20T18:47:32.720Z,0.77
2019-06-20T18:50:05.517Z,1.00
2019-06-20T18:52:51.038Z,1.30
2019-06-20T18:55:10.132Z,0.67
2019-06-20T18:57:41.224Z,0.70
2019-06-20T19:00:13.314Z,0.80
2019-06-20T19:02:44.415Z,1.23
2019-06-20T19:05:15.699Z,0.80
2019-06-20T19:07:46.832Z,0.97
2019-06-20T19:10:22.981Z,0.60
2019-06-20T19:12:54.091Z,0.77
2019-06-20T19:15:26.071Z,0.90
2019-06-20T19:17:57.630Z,0.90
2019-06-20T19:20:28.776Z,0.97
2019-06-20T19:23:00.158Z,0.70
2019-06-20T19:25:31.297Z,0.80
2019-06-20T19:28:02.457Z,0.93
2019-06-20T19:30:48.326Z,1.00
2019-06-20T19:33:19.760Z,0.80
2019-06-20T19:35:55.054Z,0.70
2019-06-20T19:38:26.121Z,0.75
2019-06-20T19:40:58.224Z,0.83
2019-06-20T19:43:29.635Z,0.70
2019-06-20T19:46:00.750Z,0.80
2019-06-20T19:48:32.305Z,0.80
2019-06-20T19:51:03.753Z,0.93
2019-06-20T19:53:35.893Z,0.80
2019-06-20T19:56:07.179Z,0.60
2019-06-20T19:58:38.777Z,0.80
2019-06-20T20:01:09.984Z,0.80
2019-06-20T20:03:41.171Z,0.70
2019-06-20T20:06:12.290Z,0.60
2019-06-20T20:08:43.560Z,0.90
2019-06-20T20:11:14.602Z,0.50
2019-06-20T20:13:45.821Z,0.70
2019-06-20T20:16:17.067Z,0.90
2019-06-20T20:18:48.322Z,0.70
2019-06-20T20:21:19.378Z,0.70
2019-06-20T20:23:50.512Z,0.70
2019-06-20T20:26:21.581Z,0.78
2019-06-20T20:28:52.754Z,0.97
2019-06-20T20:31:24.070Z,0.93
2019-06-20T20:33:55.941Z,0.70
2019-06-20T20:36:27.169Z,0.70
2019-06-20T20:38:58.228Z,0.90
2019-06-20T20:41:29.289Z,0.80
2019-06-20T20:44:00.300Z,0.70
2019-06-20T20:46:31.349Z,0.50
2019-06-20T20:49:02.354Z,0.90
2019-06-20T20:51:33.446Z,0.80
2019-06-20T20:54:04.531Z,0.50
2019-06-20T20:56:35.691Z,1.00
2019-06-20T20:59:06.820Z,0.57
2019-06-20T21:01:39.019Z,0.86
2019-06-20T21:04:10.066Z,0.80
2019-06-20T21:06:41.092Z,0.60
2019-06-20T21:09:12.255Z,0.60
2019-06-20T21:11:43.348Z,0.80
2019-06-20T21:14:14.369Z,0.60
2019-06-20T21:16:45.416Z,0.60
2019-06-20T21:19:16.534Z,1.10
2019-06-20T21:21:48.058Z,0.67
2019-06-20T21:24:19.121Z,0.72
2019-06-20T21:26:50.373Z,0.77
2019-06-20T21:29:21.486Z,0.62
2019-06-20T21:31:52.534Z,0.90
2019-06-20T21:34:23.586Z,0.60
2019-06-20T21:41:01.571Z,0.70
2019-06-20T21:43:32.884Z,0.70
2019-06-20T21:46:06.761Z,0.90
2019-06-20T21:48:37.084Z,0.73
2019-06-20T21:51:09.100Z,0.66
2019-06-20T21:53:40.483Z,0.50
2019-06-20T21:56:11.547Z,0.70
2019-06-20T21:58:42.649Z,0.67
2019-06-20T22:01:14.601Z,0.57
2019-06-20T22:03:45.989Z,0.80
2019-06-20T22:06:23.908Z,0.70
2019-06-20T22:08:49.909Z,0.57
2019-06-20T22:11:21.130Z,0.53
2019-06-20T22:13:52.294Z,0.70
2019-06-20T22:16:23.452Z,1.07
2019-06-20T22:18:54.594Z,1.10
2019-06-20T22:21:25.786Z,0.88
2019-06-20T22:23:57.153Z,1.03
2019-06-20T22:26:28.228Z,0.60
2019-06-20T22:28:59.263Z,0.70
2019-06-20T22:31:30.460Z,0.70
2019-06-20T22:34:01.516Z,1.00
2019-06-20T22:36:40.280Z,0.73
2019-06-20T22:39:07.957Z,0.70
2019-06-20T22:41:39.373Z,0.70
2019-06-20T22:44:10.540Z,0.70
2019-06-20T22:46:41.577Z,0.60
2019-06-20T22:49:12.610Z,1.10
2019-06-20T22:51:43.636Z,0.62
2019-06-20T22:54:14.636Z,0.60
2019-06-20T22:56:45.756Z,0.60
2019-06-20T22:59:17.061Z,0.55
2019-06-20T23:01:48.081Z,0.60
2019-06-20T23:04:19.130Z,0.73
2019-06-20T23:06:56.474Z,0.60
2019-06-20T23:09:22.973Z,0.70
2019-06-20T23:11:54.037Z,0.73
2019-06-20T23:14:26.125Z,0.75
2019-06-20T23:16:57.258Z,0.70
2019-06-20T23:19:28.306Z,0.60
2019-06-20T23:21:59.516Z,0.60
2019-06-20T23:24:30.561Z,1.27
2019-06-20T23:27:01.580Z,0.70
2019-06-20T23:29:32.583Z,0.80
2019-06-20T23:32:03.969Z,0.77
2019-06-20T23:34:35.022Z,0.80
2019-06-20T23:37:12.799Z,0.60
2019-06-20T23:39:39.489Z,1.00
2019-06-20T23:42:10.665Z,0.75
2019-06-20T23:44:41.691Z,0.80
2019-06-20T23:47:12.727Z,0.80
2019-06-20T23:49:43.735Z,0.60
2019-06-20T23:52:18.895Z,0.87
2019-06-20T23:54:50.005Z,0.70
2019-06-20T23:57:21.063Z,0.60
2019-06-20T23:59:52.149Z,0.70
